Time;durP1;ratioP1;P1;durP2;ratioP2;P2;SDS_P1;SDS_P2;PMS_P1;PMS_P2;Temp;Humidity;BMP_temperature;BMP_pressure;BME280_temperature;BME280_humidity;BME280_pressure;Samples;Min_cycle;Max_cycle;Signal;HPM_P1;HPM_P2
2023/05/13 00:01:24;;;;;;;2.30;1.15;;;12.40;99.90;;;;;;4988701;28;20034;-69
2023/05/13 00:03:49;;;;;;;3.15;1.23;;;12.30;99.90;;;;;;4999219;28;20049;-68
2023/05/13 00:06:15;;;;;;;2.83;1.25;;;12.20;99.90;;;;;;4988507;28;20048;-69
2023/05/13 00:08:41;;;;;;;3.65;1.27;;;12.10;99.90;;;;;;4985826;28;20970;-69
2023/05/13 00:11:07;;;;;;;1.73;1.10;;;12.10;99.90;;;;;;4983859;28;20109;-70
2023/05/13 00:13:33;;;;;;;2.70;1.13;;;12.00;99.90;;;;;;4988152;28;20715;-69
2023/05/13 00:15:59;;;;;;;2.25;1.25;;;12.00;99.90;;;;;;4985523;28;20517;-69
2023/05/13 00:18:25;;;;;;;1.70;1.15;;;11.90;99.90;;;;;;4990117;28;20030;-69
2023/05/13 00:20:50;;;;;;;3.38;1.50;;;11.90;99.90;;;;;;4979457;28;20030;-70
2023/05/13 00:23:16;;;;;;;3.72;1.08;;;11.80;99.90;;;;;;4991319;28;20402;-70
2023/05/13 00:25:43;;;;;;;2.00;1.23;;;11.80;99.90;;;;;;4976884;28;20046;-70
2023/05/13 00:28:10;;;;;;;2.90;1.27;;;11.80;99.90;;;;;;4990141;28;20026;-70
2023/05/13 00:30:36;;;;;;;2.22;1.25;;;11.70;99.90;;;;;;4978266;28;20054;-70
2023/05/13 00:33:02;;;;;;;3.42;1.40;;;11.70;99.90;;;;;;4990940;28;20173;-70
2023/05/13 00:35:27;;;;;;;2.33;1.23;;;11.60;99.90;;;;;;4980050;28;20045;-70
2023/05/13 00:37:53;;;;;;;2.40;1.20;;;11.60;99.90;;;;;;4990192;28;20034;-69
2023/05/13 00:40:22;;;;;;;2.33;1.27;;;11.60;99.90;;;;;;4977457;28;20045;-70
2023/05/13 00:42:48;;;;;;;1.67;1.25;;;11.50;99.90;;;;;;4989807;28;20034;-70
2023/05/13 00:45:13;;;;;;;2.63;1.42;;;11.50;99.90;;;;;;4976170;28;20501;-70
2023/05/13 00:47:40;;;;;;;2.65;1.45;;;11.40;99.90;;;;;;4991334;28;20026;-70
2023/05/13 00:50:09;;;;;;;2.13;1.25;;;11.40;99.90;;;;;;4977369;28;20039;-69
2023/05/13 00:52:37;;;;;;;4.15;1.98;;;11.30;99.90;;;;;;4988024;28;20030;-70
2023/05/13 00:55:04;;;;;;;4.78;2.30;;;11.20;99.90;;;;;;4968631;28;20042;-70
2023/05/13 00:57:30;;;;;;;3.97;1.58;;;11.10;99.90;;;;;;4989916;28;20129;-70
2023/05/13 00:59:56;;;;;;;3.83;1.73;;;11.00;99.90;;;;;;4969756;28;20120;-69
2023/05/13 01:02:33;;;;;;;5.45;2.05;;;11.00;99.90;;;;;;4990851;28;20030;-69
2023/05/13 01:05:44;;;;;;;2.92;1.70;;;11.10;99.90;;;;;;4951246;28;20023;-69
2023/05/13 01:08:26;;;;;;;2.67;1.60;;;11.10;99.90;;;;;;4929337;28;20039;-68
2023/05/13 01:11:06;;;;;;;2.63;1.65;;;11.10;99.90;;;;;;4959541;28;20066;-68
2023/05/13 01:13:41;;;;;;;2.58;1.77;;;11.10;99.90;;;;;;4986498;28;20030;-69
2023/05/13 01:16:22;;;;;;;5.72;1.90;;;11.10;99.90;;;;;;4983653;28;20498;-69
2023/05/13 01:19:20;;;;;;;4.20;2.17;;;11.00;99.90;;;;;;4952070;28;20046;-68
2023/05/13 01:21:53;;;;;;;3.38;1.92;;;11.00;99.90;;;;;;4978128;28;20368;-69
2023/05/13 01:24:19;;;;;;;4.47;2.28;;;11.00;99.90;;;;;;4972274;28;20031;-70
2023/05/13 01:26:45;;;;;;;4.88;2.28;;;11.00;99.90;;;;;;4989803;28;20033;-69
2023/05/13 01:29:11;;;;;;;3.55;2.13;;;11.00;99.90;;;;;;4976861;28;20035;-70
2023/05/13 01:31:39;;;;;;;4.05;2.13;;;11.00;99.90;;;;;;4989615;28;20026;-70
2023/05/13 01:34:09;;;;;;;8.35;2.67;;;10.80;99.90;;;;;;4977098;28;20573;-70
2023/05/13 01:36:36;;;;;;;8.05;2.38;;;10.80;99.90;;;;;;4989180;28;20073;-70
2023/05/13 01:39:03;;;;;;;3.42;2.42;;;10.70;99.90;;;;;;4978971;28;20027;-69
2023/05/13 01:41:28;;;;;;;4.82;2.53;;;10.60;99.90;;;;;;4984192;28;20026;-70
2023/05/13 01:43:54;;;;;;;4.57;2.80;;;10.50;99.90;;;;;;4980979;28;20035;-69
2023/05/13 01:46:21;;;;;;;4.38;2.40;;;10.50;99.90;;;;;;4990185;28;20034;-70
2023/05/13 01:48:46;;;;;;;19.33;2.78;;;10.50;99.90;;;;;;4986862;28;20023;-69
2023/05/13 01:51:12;;;;;;;3.92;2.50;;;10.40;99.90;;;;;;4987929;28;20038;-70
2023/05/13 01:53:38;;;;;;;5.28;2.75;;;10.40;99.90;;;;;;4987553;28;20430;-70
2023/05/13 01:56:04;;;;;;;4.00;2.17;;;10.40;99.90;;;;;;4985738;28;20113;-70
2023/05/13 01:58:30;;;;;;;3.35;1.90;;;10.30;99.90;;;;;;4990738;28;20058;-71
2023/05/13 02:00:55;;;;;;;4.05;1.95;;;10.30;99.90;;;;;;4983336;28;20100;-70
2023/05/13 02:03:21;;;;;;;3.88;2.63;;;10.30;99.90;;;;;;4992777;28;20517;-70
2023/05/13 02:05:47;;;;;;;4.00;1.95;;;10.40;99.90;;;;;;4981429;28;20033;-70
2023/05/13 02:08:13;;;;;;;4.90;2.45;;;10.30;99.90;;;;;;4993959;28;20034;-70
2023/05/13 02:10:39;;;;;;;4.40;2.10;;;10.30;99.90;;;;;;4980043;28;20379;-70
2023/05/13 02:13:04;;;;;;;3.00;1.98;;;10.30;99.90;;;;;;4992513;28;20026;-70
2023/05/13 02:15:30;;;;;;;4.18;1.75;;;10.30;99.90;;;;;;4982427;28;20577;-70
2023/05/13 02:17:56;;;;;;;3.33;1.95;;;10.20;99.90;;;;;;4992381;28;20040;-70
2023/05/13 02:20:21;;;;;;;3.90;1.67;;;10.20;99.90;;;;;;4979554;28;20105;-69
2023/05/13 02:22:47;;;;;;;3.65;1.90;;;10.20;99.90;;;;;;4992463;28;20037;-70
2023/05/13 02:25:13;;;;;;;4.38;2.40;;;10.20;99.90;;;;;;4979892;28;20073;-70
2023/05/13 02:27:39;;;;;;;4.82;2.17;;;10.20;99.90;;;;;;4981736;28;20509;-70
2023/05/13 02:30:06;;;;;;;4.28;2.40;;;10.20;99.90;;;;;;4974500;28;20425;-70
2023/05/13 02:32:31;;;;;;;3.20;2.08;;;10.20;99.90;;;;;;4992921;28;20053;-70
2023/05/13 02:34:57;;;;;;;3.63;2.00;;;10.20;99.90;;;;;;4980912;28;20038;-70
2023/05/13 02:37:23;;;;;;;3.95;2.33;;;10.20;99.90;;;;;;4993424;28;20478;-70
2023/05/13 02:39:49;;;;;;;10.00;2.33;;;10.20;99.90;;;;;;4979583;28;20720;-70
2023/05/13 02:42:14;;;;;;;5.60;2.58;;;10.20;99.90;;;;;;4979544;28;20058;-71
2023/05/13 02:44:40;;;;;;;6.55;2.50;;;10.30;99.90;;;;;;4971300;28;20057;-69
2023/05/13 02:47:06;;;;;;;3.92;2.47;;;10.30;99.90;;;;;;4993084;28;20069;-69
2023/05/13 02:49:32;;;;;;;5.43;2.10;;;10.30;99.90;;;;;;4979396;28;20038;-70
2023/05/13 02:51:57;;;;;;;2.90;1.60;;;10.20;99.90;;;;;;4993146;28;20038;-70
2023/05/13 02:54:23;;;;;;;4.68;2.05;;;10.30;99.90;;;;;;4979084;28;20122;-70
2023/05/13 02:56:49;;;;;;;3.97;2.00;;;10.20;99.90;;;;;;4980461;28;20398;-70
2023/05/13 02:59:15;;;;;;;5.15;2.33;;;10.20;99.90;;;;;;4957158;28;20106;-70
2023/05/13 03:01:41;;;;;;;3.83;2.08;;;10.20;99.90;;;;;;4991868;28;20368;-70
2023/05/13 03:04:06;;;;;;;3.60;2.25;;;10.10;99.90;;;;;;4963602;28;20031;-70
2023/05/13 03:06:32;;;;;;;5.22;2.40;;;10.10;99.90;;;;;;4974939;28;20080;-70
2023/05/13 03:08:58;;;;;;;3.88;2.35;;;10.00;99.90;;;;;;4982247;28;20314;-70
2023/05/13 03:11:23;;;;;;;3.45;1.98;;;10.00;99.90;;;;;;4982952;28;20035;-70
2023/05/13 03:13:49;;;;;;;3.97;2.20;;;10.00;99.90;;;;;;4987537;23;20058;-65
2023/05/13 03:16:15;;;;;;;3.97;1.80;;;9.90;99.90;;;;;;4970761;28;20027;-65
2023/05/13 03:18:40;;;;;;;3.08;2.20;;;9.90;99.90;;;;;;4970613;28;20039;-65
2023/05/13 03:21:06;;;;;;;6.75;2.40;;;9.90;99.90;;;;;;4970324;28;20102;-65
2023/05/13 03:23:32;;;;;;;3.42;1.90;;;9.90;99.90;;;;;;4969865;28;20026;-65
2023/05/13 03:25:58;;;;;;;4.65;2.20;;;9.80;99.90;;;;;;4973002;28;20027;-65
2023/05/13 03:28:24;;;;;;;5.85;2.72;;;9.80;99.90;;;;;;4970580;28;20049;-65
2023/05/13 03:30:50;;;;;;;3.65;2.33;;;9.80;99.90;;;;;;4972495;28;20034;-65
2023/05/13 03:33:16;;;;;;;4.68;2.35;;;9.80;99.90;;;;;;4970345;28;20034;-64
2023/05/13 03:35:41;;;;;;;4.13;1.85;;;9.80;99.90;;;;;;4969103;28;20042;-64
2023/05/13 03:38:07;;;;;;;5.63;2.88;;;9.80;99.90;;;;;;4960502;28;20409;-64
2023/05/13 03:40:33;;;;;;;6.40;3.05;;;9.80;99.90;;;;;;4971088;28;20110;-64
2023/05/13 03:42:59;;;;;;;5.97;2.47;;;9.90;99.90;;;;;;4969154;28;20069;-64
2023/05/13 03:45:25;;;;;;;7.00;3.67;;;9.90;99.90;;;;;;4972895;28;20082;-64
2023/05/13 03:47:51;;;;;;;6.82;3.65;;;10.00;99.90;;;;;;4970718;28;20034;-64
2023/05/13 03:50:16;;;;;;;4.93;2.33;;;10.00;99.90;;;;;;4972207;28;20081;-64
2023/05/13 03:52:42;;;;;;;6.22;3.15;;;10.10;99.90;;;;;;4970685;28;20042;-64
2023/05/13 03:55:08;;;;;;;7.57;3.45;;;10.10;99.90;;;;;;4971102;28;20485;-64
2023/05/13 03:57:34;;;;;;;5.40;2.95;;;10.10;99.90;;;;;;4970771;28;20557;-64
2023/05/13 03:59:59;;;;;;;5.57;3.08;;;10.20;99.90;;;;;;4971733;28;20031;-65
2023/05/13 04:02:25;;;;;;;6.10;3.08;;;10.30;99.90;;;;;;4970498;28;20090;-64
2023/05/13 04:04:51;;;;;;;7.15;3.33;;;10.30;99.90;;;;;;4981975;28;20106;-65
2023/05/13 04:07:16;;;;;;;6.60;4.18;;;10.30;99.90;;;;;;4984688;28;20042;-64
2023/05/13 04:09:42;;;;;;;7.60;3.63;;;10.40;99.90;;;;;;4971742;28;20106;-64
2023/05/13 04:12:08;;;;;;;6.47;3.72;;;10.50;99.90;;;;;;4954776;28;20034;-65
2023/05/13 04:14:34;;;;;;;6.07;3.72;;;10.50;99.90;;;;;;4969025;28;20546;-64
2023/05/13 04:16:59;;;;;;;5.47;3.50;;;10.60;99.90;;;;;;4972155;28;20059;-65
2023/05/13 04:19:25;;;;;;;5.10;2.80;;;10.60;99.90;;;;;;4984824;28;20042;-65
2023/05/13 04:21:51;;;;;;;11.60;4.18;;;10.60;99.90;;;;;;4971765;28;20398;-65
2023/05/13 04:24:17;;;;;;;7.28;3.92;;;10.60;99.90;;;;;;4984948;28;20058;-65
2023/05/13 04:26:42;;;;;;;7.43;3.65;;;10.70;99.90;;;;;;4971894;28;20166;-64
2023/05/13 04:29:08;;;;;;;6.70;4.13;;;10.70;99.90;;;;;;4968186;28;20466;-63
2023/05/13 04:31:34;;;;;;;7.45;3.25;;;10.70;99.90;;;;;;4986685;28;20049;-64
2023/05/13 04:34:00;;;;;;;8.30;3.55;;;10.80;99.90;;;;;;4968089;28;20589;-64
2023/05/13 04:36:25;;;;;;;10.35;4.75;;;10.80;99.90;;;;;;4969284;28;20034;-65
2023/05/13 04:38:51;;;;;;;5.45;3.35;;;10.80;99.90;;;;;;4984098;28;20072;-65
2023/05/13 04:41:17;;;;;;;6.25;3.58;;;10.80;99.90;;;;;;4971854;28;20046;-65
2023/05/13 04:43:46;;;;;;;7.47;3.35;;;10.90;99.90;;;;;;4969789;28;20501;-65
2023/05/13 04:46:12;;;;;;;8.45;3.95;;;10.90;99.90;;;;;;4970448;28;20026;-65
2023/05/13 04:48:37;;;;;;;5.35;2.83;;;11.00;99.90;;;;;;4969352;28;20039;-65
2023/05/13 04:51:03;;;;;;;7.07;3.30;;;11.00;99.90;;;;;;4950415;28;20032;-65
2023/05/13 04:53:29;;;;;;;6.05;3.20;;;11.10;99.90;;;;;;4954814;28;20116;-65
2023/05/13 04:55:59;;;;;;;5.45;3.42;;;11.10;99.90;;;;;;4971787;28;20066;-65
2023/05/13 04:58:26;;;;;;;6.03;2.72;;;11.10;99.90;;;;;;4969739;28;20050;-65
2023/05/13 05:00:53;;;;;;;7.50;3.28;;;11.20;99.90;;;;;;4971473;28;20033;-65
2023/05/13 05:03:19;;;;;;;7.60;3.17;;;11.30;99.90;;;;;;4957742;28;20023;-65
2023/05/13 05:05:45;;;;;;;6.90;3.72;;;11.40;99.90;;;;;;4967754;28;20454;-65
2023/05/13 05:08:11;;;;;;;6.00;3.30;;;11.50;99.90;;;;;;4969635;28;20162;-65
2023/05/13 05:10:37;;;;;;;5.65;3.35;;;11.50;99.90;;;;;;4966716;28;20114;-65
2023/05/13 05:13:02;;;;;;;6.70;2.88;;;11.60;99.90;;;;;;4956813;28;20403;-65
2023/05/13 05:15:28;;;;;;;6.03;3.05;;;11.70;99.90;;;;;;4968960;28;20039;-65
2023/05/13 05:17:54;;;;;;;5.88;3.03;;;11.70;99.90;;;;;;4963630;28;20039;-65
2023/05/13 05:20:20;;;;;;;4.93;2.50;;;11.80;99.90;;;;;;4972218;28;20545;-65
2023/05/13 05:22:46;;;;;;;5.35;2.97;;;11.80;99.90;;;;;;4973445;28;20033;-65
2023/05/13 05:25:12;;;;;;;7.03;2.80;;;11.80;99.90;;;;;;4975020;28;20019;-65
2023/05/13 05:27:38;;;;;;;7.55;3.65;;;11.90;99.90;;;;;;4973420;28;20035;-65
2023/05/13 05:30:05;;;;;;;5.63;2.70;;;12.00;99.90;;;;;;4974833;28;20097;-65
2023/05/13 05:32:32;;;;;;;4.43;2.78;;;12.00;99.90;;;;;;4971547;28;20030;-65
2023/05/13 05:35:00;;;;;;;7.78;3.60;;;12.10;99.90;;;;;;4971299;28;20042;-65
2023/05/13 05:37:28;;;;;;;6.53;3.10;;;12.20;99.90;;;;;;4972059;28;20027;-65
2023/05/13 05:39:53;;;;;;;5.40;3.15;;;12.20;99.90;;;;;;4974325;28;20086;-65
2023/05/13 05:42:19;;;;;;;5.47;3.13;;;12.30;99.90;;;;;;4973011;28;20050;-65
2023/05/13 05:44:46;;;;;;;5.05;3.40;;;12.30;99.90;;;;;;4974799;28;20030;-65
2023/05/13 05:47:12;;;;;;;4.82;2.75;;;12.30;99.90;;;;;;4973149;28;20055;-65
2023/05/13 05:49:38;;;;;;;5.75;2.47;;;12.40;99.90;;;;;;4974339;28;20075;-65
2023/05/13 05:52:04;;;;;;;4.47;2.50;;;12.50;99.90;;;;;;4974422;28;20887;-65
2023/05/13 05:54:29;;;;;;;6.32;2.63;;;12.50;99.90;;;;;;4973610;28;20034;-65
2023/05/13 05:56:55;;;;;;;6.35;2.85;;;12.60;99.90;;;;;;4975055;28;20042;-65
2023/05/13 05:59:21;;;;;;;4.72;2.60;;;12.70;99.90;;;;;;4971963;28;20042;-65
2023/05/13 06:01:47;;;;;;;6.45;2.95;;;12.80;99.90;;;;;;4964189;28;20062;-65
2023/05/13 06:04:12;;;;;;;4.70;2.40;;;12.90;99.90;;;;;;4950872;28;20508;-65
2023/05/13 06:06:39;;;;;;;4.00;2.72;;;13.00;99.90;;;;;;4974690;28;20474;-65
2023/05/13 06:09:05;;;;;;;4.53;2.38;;;13.00;99.90;;;;;;4972435;28;20046;-65
2023/05/13 06:11:31;;;;;;;3.00;1.92;;;13.10;99.90;;;;;;4945185;29;20027;-65
2023/05/13 06:13:56;;;;;;;3.42;2.03;;;13.20;99.90;;;;;;4968538;28;20166;-65
2023/05/13 06:16:23;;;;;;;4.25;2.08;;;13.30;99.90;;;;;;4973013;28;20402;-65
2023/05/13 06:18:48;;;;;;;3.67;1.80;;;13.40;99.90;;;;;;4972516;28;20086;-65
2023/05/13 06:21:14;;;;;;;3.95;2.75;;;13.60;99.90;;;;;;4974014;28;20031;-65
2023/05/13 06:23:40;;;;;;;3.47;1.90;;;13.60;99.90;;;;;;4972480;28;20030;-65
2023/05/13 06:26:05;;;;;;;3.63;1.42;;;13.70;99.90;;;;;;4973976;28;20380;-65
2023/05/13 06:28:31;;;;;;;4.82;2.50;;;13.80;99.90;;;;;;4971259;28;20038;-65
2023/05/13 06:30:57;;;;;;;3.90;1.60;;;13.80;99.90;;;;;;4964208;28;20035;-65
2023/05/13 06:33:23;;;;;;;5.82;1.58;;;13.90;99.90;;;;;;4962248;28;20074;-73
2023/05/13 06:35:48;;;;;;;2.85;1.50;;;13.90;99.90;;;;;;4951447;28;20031;-64
2023/05/13 06:38:18;;;;;;;6.30;1.38;;;14.00;99.90;;;;;;4948798;28;20031;-63
2023/05/13 06:40:44;;;;;;;3.38;1.90;;;14.00;99.90;;;;;;4944991;28;20036;-64
2023/05/13 06:43:13;;;;;;;2.40;1.52;;;14.00;99.90;;;;;;4946239;28;20046;-63
2023/05/13 06:45:39;;;;;;;1.92;1.45;;;14.00;99.90;;;;;;4949549;28;20045;-69
2023/05/13 06:48:05;;;;;;;3.60;1.52;;;14.10;99.90;;;;;;4941928;28;20071;-63
2023/05/13 06:50:30;;;;;;;3.58;1.50;;;14.10;99.90;;;;;;4946843;28;20051;-64
2023/05/13 06:52:57;;;;;;;4.53;1.70;;;14.00;99.90;;;;;;4948608;28;20062;-64
2023/05/13 06:55:23;;;;;;;4.15;1.73;;;14.10;99.90;;;;;;4972686;28;20157;-66
2023/05/13 06:57:49;;;;;;;12.23;1.92;;;14.20;99.90;;;;;;4969852;28;20079;-64
2023/05/13 07:00:15;;;;;;;2.63;1.50;;;14.30;99.90;;;;;;4972312;28;20042;-63
2023/05/13 07:02:41;;;;;;;3.80;1.48;;;14.30;99.90;;;;;;4969935;28;20088;-66
2023/05/13 07:05:09;;;;;;;1.63;1.17;;;14.40;99.90;;;;;;4950007;28;20475;-63
2023/05/13 07:07:35;;;;;;;2.70;1.50;;;14.50;99.90;;;;;;4948315;28;20035;-63
2023/05/13 07:10:01;;;;;;;1.50;1.08;;;14.70;99.90;;;;;;4948723;28;20037;-63
2023/05/13 07:12:27;;;;;;;3.45;1.40;;;14.80;99.90;;;;;;4945050;28;20143;-63
2023/05/13 07:14:53;;;;;;;2.88;1.60;;;14.80;99.90;;;;;;4960439;28;20035;-64
2023/05/13 07:17:19;;;;;;;3.08;1.80;;;14.80;99.90;;;;;;4970475;28;20041;-64
2023/05/13 07:19:44;;;;;;;4.75;1.42;;;14.90;99.90;;;;;;4971680;28;20038;-64
2023/05/13 07:22:10;;;;;;;1.58;1.23;;;15.00;99.90;;;;;;4960336;28;20051;-64
2023/05/13 07:24:36;;;;;;;2.75;1.70;;;15.00;99.90;;;;;;4972378;28;20027;-63
2023/05/13 07:27:02;;;;;;;8.55;1.65;;;15.10;99.90;;;;;;4964943;28;20110;-64
2023/05/13 07:29:31;;;;;;;2.50;1.40;;;15.10;99.90;;;;;;4953196;28;20035;-65
2023/05/13 07:31:56;;;;;;;1.98;1.40;;;15.10;99.90;;;;;;4939612;29;20082;-64
2023/05/13 07:34:22;;;;;;;4.53;1.42;;;15.20;99.90;;;;;;4966215;28;20034;-64
2023/05/13 07:36:48;;;;;;;3.10;1.27;;;15.30;99.90;;;;;;4972486;28;20042;-64
2023/05/13 07:39:14;;;;;;;1.98;1.17;;;15.30;99.90;;;;;;4966489;28;20038;-64
2023/05/13 07:41:39;;;;;;;1.85;1.08;;;15.30;99.90;;;;;;4971201;28;20359;-63
2023/05/13 07:44:10;;;;;;;5.40;1.10;;;15.20;99.90;;;;;;4969828;28;20116;-62
2023/05/13 07:46:36;;;;;;;2.00;1.10;;;15.20;99.90;;;;;;4933525;29;20407;-63
2023/05/13 07:49:05;;;;;;;2.85;1.33;;;15.20;99.90;;;;;;4961471;28;20038;-63
2023/05/13 07:51:31;;;;;;;2.13;1.02;;;15.10;99.90;;;;;;4970895;28;20031;-63
2023/05/13 07:53:57;;;;;;;4.03;1.80;;;15.20;99.90;;;;;;4954417;28;20092;-63
2023/05/13 07:56:23;;;;;;;3.67;1.27;;;15.30;99.90;;;;;;4971644;28;20494;-63
2023/05/13 07:58:49;;;;;;;4.28;1.55;;;15.20;99.90;;;;;;4967995;28;20030;-63
2023/05/13 08:01:15;;;;;;;2.83;1.35;;;15.30;99.90;;;;;;4969166;28;20486;-62
2023/05/13 08:03:41;;;;;;;4.32;1.60;;;15.40;99.90;;;;;;4969961;28;20705;-62
2023/05/13 08:06:07;;;;;;;6.07;1.27;;;15.60;99.90;;;;;;4965897;28;20058;-63
2023/05/13 08:08:32;;;;;;;4.95;1.52;;;15.70;99.90;;;;;;4968772;28;20038;-63
2023/05/13 08:10:58;;;;;;;2.10;1.15;;;16.00;99.90;;;;;;4962955;28;20537;-64
2023/05/13 08:13:24;;;;;;;3.00;1.13;;;16.20;99.90;;;;;;4960868;28;20482;-64
2023/05/13 08:15:51;;;;;;;3.10;1.30;;;16.30;99.90;;;;;;4971806;28;20565;-63
2023/05/13 08:18:17;;;;;;;2.72;1.38;;;16.50;99.90;;;;;;4969562;28;20058;-64
2023/05/13 08:20:43;;;;;;;2.17;0.88;;;16.60;99.90;;;;;;4971511;28;20035;-63
2023/05/13 08:23:08;;;;;;;5.25;1.60;;;16.70;99.90;;;;;;4969527;28;20450;-64
2023/05/13 08:25:34;;;;;;;2.65;1.48;;;16.80;99.90;;;;;;4971229;28;20035;-64
2023/05/13 08:28:02;;;;;;;3.15;1.23;;;16.60;99.90;;;;;;4969817;28;20133;-63
2023/05/13 08:30:28;;;;;;;1.70;1.02;;;16.70;99.90;;;;;;4971149;28;20054;-63
2023/05/13 08:32:53;;;;;;;5.03;1.25;;;16.80;99.90;;;;;;4961025;28;20275;-63
2023/05/13 08:35:20;;;;;;;1.35;0.93;;;17.00;99.90;;;;;;4968778;28;20069;-63
2023/05/13 08:37:46;;;;;;;2.20;1.10;;;17.00;99.90;;;;;;4969748;28;20099;-64
2023/05/13 08:40:12;;;;;;;1.25;0.70;;;17.10;99.90;;;;;;4969519;28;20035;-64
2023/05/13 08:42:38;;;;;;;2.10;1.20;;;17.20;99.90;;;;;;4969453;28;20455;-63
2023/05/13 08:45:06;;;;;;;2.67;1.02;;;17.30;99.90;;;;;;4956724;28;20034;-64
2023/05/13 08:47:55;;;;;;;2.30;1.38;;;17.40;99.90;;;;;;4967811;28;20029;-64
2023/05/13 08:50:21;;;;;;;1.25;0.93;;;17.50;99.90;;;;;;4969467;28;20071;-64
2023/05/13 08:52:51;;;;;;;2.50;1.10;;;17.70;99.90;;;;;;4969182;28;20031;-63
2023/05/13 08:55:17;;;;;;;2.20;1.00;;;17.70;99.90;;;;;;4973709;28;20039;-63
2023/05/13 08:57:44;;;;;;;0.95;0.75;;;17.80;99.90;;;;;;4972190;28;20057;-63
2023/05/13 09:00:10;;;;;;;1.50;0.95;;;17.80;99.90;;;;;;4970192;28;20035;-64
2023/05/13 09:02:36;;;;;;;1.33;0.80;;;18.00;99.90;;;;;;4973227;28;20079;-63
2023/05/13 09:05:07;;;;;;;1.40;0.85;;;18.00;99.90;;;;;;4972637;28;20518;-64
2023/05/13 09:07:34;;;;;;;2.85;1.13;;;18.00;99.90;;;;;;4953741;28;20033;-64
2023/05/13 09:10:00;;;;;;;1.83;0.80;;;18.00;99.90;;;;;;4974600;28;20043;-64
2023/05/13 09:12:46;;;;;;;1.90;1.00;;;18.10;99.90;;;;;;4971985;23;20177;-68
2023/05/13 09:15:16;;;;;;;1.30;0.98;;;18.30;99.90;;;;;;4973617;28;20271;-68
2023/05/13 09:17:44;;;;;;;1.75;1.23;;;18.10;99.90;;;;;;4971856;28;20130;-68
2023/05/13 09:20:12;;;;;;;6.07;1.40;;;18.10;99.90;;;;;;4973165;28;20089;-68
2023/05/13 09:23:00;;;;;;;4.53;1.20;;;18.10;99.90;;;;;;4938140;29;20082;-68
2023/05/13 09:25:27;;;;;;;2.42;1.40;;;18.20;99.90;;;;;;4972993;28;20130;-68
2023/05/13 09:27:57;;;;;;;2.88;1.13;;;18.40;99.90;;;;;;4970044;28;20054;-68
2023/05/13 09:30:39;;;;;;;3.03;0.80;;;18.10;99.90;;;;;;4987450;28;20470;-68
2023/05/13 09:33:14;;;;;;;2.83;0.98;;;18.40;99.90;;;;;;4961508;28;20027;-68
2023/05/13 09:35:42;;;;;;;3.22;1.00;;;18.60;99.90;;;;;;4976614;28;20118;-68
2023/05/13 09:38:30;;;;;;;2.30;1.35;;;19.00;99.90;;;;;;4967649;28;20058;-67
2023/05/13 09:41:01;;;;;;;2.28;1.02;;;19.00;99.90;;;;;;4963392;28;20059;-67
2023/05/13 09:43:31;;;;;;;1.90;0.98;;;19.20;99.60;;;;;;4959243;28;20042;-68
2023/05/13 09:46:02;;;;;;;6.53;0.93;;;19.30;99.00;;;;;;4974293;28;20023;-67
2023/05/13 09:48:33;;;;;;;2.47;1.17;;;19.20;99.90;;;;;;4966025;28;20027;-66
2023/05/13 09:50:59;;;;;;;5.00;2.35;;;19.50;98.80;;;;;;4972509;28;20031;-67
2023/05/13 09:53:26;;;;;;;1.90;0.80;;;19.50;98.80;;;;;;4959268;28;20051;-67
2023/05/13 09:55:55;;;;;;;1.92;1.10;;;19.50;98.70;;;;;;4973629;28;20026;-66
2023/05/13 09:58:26;;;;;;;3.15;1.02;;;19.40;99.40;;;;;;4966590;28;20041;-66
2023/05/13 10:00:53;;;;;;;1.42;0.85;;;19.60;98.10;;;;;;4967598;28;20085;-66
2023/05/13 10:03:19;;;;;;;5.35;2.33;;;19.70;98.50;;;;;;4959271;28;20031;-66
2023/05/13 10:05:45;;;;;;;2.63;1.38;;;19.60;97.60;;;;;;4969042;28;20505;-66
2023/05/13 10:08:13;;;;;;;4.82;1.08;;;20.00;97.80;;;;;;4959589;28;20036;-66
2023/05/13 10:10:42;;;;;;;1.35;0.98;;;20.00;97.00;;;;;;4971016;28;20557;-66
2023/05/13 10:13:10;;;;;;;1.73;0.90;;;20.30;97.10;;;;;;4957546;28;20053;-66
2023/05/13 10:15:51;;;;;;;5.05;0.98;;;20.70;95.90;;;;;;4964370;28;20053;-67
2023/05/13 10:18:19;;;;;;;;;;;20.80;93.20;;;;;;4959577;28;20032;-66
2023/05/13 10:20:46;;;;;;;1.30;0.82;;;20.90;90.30;;;;;;4973183;28;20012;-66
2023/05/13 10:23:12;;;;;;;1.83;1.00;;;21.20;90.30;;;;;;4981343;28;20035;-65
2023/05/13 10:25:38;;;;;;;2.35;0.82;;;21.10;91.00;;;;;;4972977;28;20041;-65
2023/05/13 10:28:04;;;;;;;1.00;0.63;;;21.00;90.60;;;;;;4961123;28;20039;-65
2023/05/13 10:30:31;;;;;;;6.70;2.40;;;21.30;90.40;;;;;;4986409;28;20035;-65
2023/05/13 10:32:58;;;;;;;1.35;0.80;;;21.00;90.40;;;;;;4962414;28;20032;-65
2023/05/13 10:35:33;;;;;;;1.77;1.13;;;21.30;88.30;;;;;;4982551;28;20027;-65
2023/05/13 10:38:16;;;;;;;9.68;1.42;;;21.10;90.40;;;;;;4962150;28;20036;-66
2023/05/13 10:41:00;;;;;;;2.67;1.65;;;21.50;90.30;;;;;;4972392;28;20466;-65
2023/05/13 10:43:31;;;;;;;2.13;0.93;;;21.60;86.70;;;;;;4944722;28;20125;-64
2023/05/13 10:45:58;;;;;;;1.73;1.00;;;21.20;88.80;;;;;;4971825;28;20110;-65
2023/05/13 10:48:24;;;;;;;2.90;0.70;;;21.30;89.70;;;;;;4965686;28;20043;-66
2023/05/13 10:51:01;;;;;;;2.60;1.08;;;21.50;90.90;;;;;;4971228;28;20522;-64
2023/05/13 10:53:30;;;;;;;2.60;0.88;;;21.80;90.30;;;;;;4960245;28;20031;-65
2023/05/13 10:55:58;;;;;;;3.63;1.23;;;22.00;86.30;;;;;;4972936;28;20089;-65
2023/05/13 10:58:33;;;;;;;1.80;1.13;;;21.60;87.20;;;;;;4965723;28;20035;-65
2023/05/13 11:01:18;;;;;;;4.85;0.90;;;21.60;84.20;;;;;;4965887;28;20030;-65
2023/05/13 11:03:58;;;;;;;1.63;0.88;;;21.30;85.00;;;;;;4958612;28;20034;-65
2023/05/13 11:06:37;;;;;;;1.90;0.80;;;21.50;87.70;;;;;;4969559;28;20038;-64
2023/05/13 11:09:19;;;;;;;3.58;1.38;;;21.60;86.70;;;;;;4957177;28;20500;-65
2023/05/13 11:11:53;;;;;;;3.17;1.40;;;21.70;87.50;;;;;;4960109;28;20034;-63
2023/05/13 11:14:24;;;;;;;3.05;1.30;;;21.60;88.60;;;;;;4955795;28;20038;-64
2023/05/13 11:17:07;;;;;;;4.13;1.30;;;22.20;85.50;;;;;;4971069;28;20041;-66
2023/05/13 11:19:47;;;;;;;2.35;1.25;;;22.00;84.40;;;;;;4964712;28;20483;-65
2023/05/13 11:22:15;;;;;;;4.40;1.00;;;21.90;83.50;;;;;;4971367;28;20114;-66
2023/05/13 11:24:45;;;;;;;4.57;1.25;;;21.90;83.30;;;;;;4957785;28;20035;-65
2023/05/13 11:27:19;;;;;;;1.98;1.30;;;21.90;85.00;;;;;;4971216;28;20022;-66
2023/05/13 11:29:50;;;;;;;3.13;1.00;;;21.60;85.30;;;;;;4964950;28;20039;-65
2023/05/13 11:32:55;;;;;;;1.88;1.00;;;21.50;87.00;;;;;;4972297;28;20041;-64
2023/05/13 11:35:31;;;;;;;2.45;1.20;;;21.20;87.10;;;;;;4963281;28;20043;-65
2023/05/13 11:38:01;;;;;;;2.70;1.23;;;21.20;88.00;;;;;;4967075;28;20078;-65
2023/05/13 11:40:27;;;;;;;5.88;1.40;;;20.70;87.60;;;;;;4970359;28;20030;-66
2023/05/13 11:42:54;;;;;;;3.25;1.88;;;20.90;87.10;;;;;;4966229;28;20039;-65
2023/05/13 11:45:23;;;;;;;6.38;3.47;;;20.90;89.30;;;;;;4968488;28;20034;-66
2023/05/13 11:47:49;;;;;;;4.35;1.48;;;20.60;88.30;;;;;;4966798;28;20027;-66
2023/05/13 11:50:26;;;;;;;1.65;0.95;;;20.60;89.50;;;;;;4968580;28;20093;-66
2023/05/13 11:53:01;;;;;;;2.30;1.08;;;20.60;90.90;;;;;;4967208;28;20035;-66
2023/05/13 11:55:34;;;;;;;4.32;1.48;;;20.40;90.50;;;;;;4970621;28;20077;-66
2023/05/13 11:58:00;;;;;;;2.30;1.13;;;20.60;91.00;;;;;;4966369;28;20039;-66
2023/05/13 12:00:28;;;;;;;1.88;1.25;;;20.80;90.90;;;;;;4965009;28;20030;-66
2023/05/13 12:02:55;;;;;;;2.28;1.30;;;20.80;89.90;;;;;;4966593;28;20107;-66
2023/05/13 12:05:21;;;;;;;3.40;1.65;;;20.70;89.80;;;;;;4965884;28;20505;-66
2023/05/13 12:07:47;;;;;;;4.68;1.40;;;20.60;89.10;;;;;;4966587;28;20443;-66
2023/05/13 12:10:13;;;;;;;1.85;1.10;;;20.70;89.10;;;;;;4965993;28;20146;-65
2023/05/13 12:12:42;;;;;;;2.38;1.42;;;20.80;87.70;;;;;;4964509;28;20089;-67
2023/05/13 12:15:17;;;;;;;2.70;1.27;;;21.00;88.80;;;;;;4966315;28;20159;-61
2023/05/13 12:17:43;;;;;;;5.50;1.60;;;21.30;88.70;;;;;;4949695;29;20046;-61
2023/05/13 12:20:17;;;;;;;2.58;1.20;;;21.80;86.10;;;;;;4967329;28;20032;-60
2023/05/13 12:22:42;;;;;;;2.17;1.15;;;21.70;87.60;;;;;;4935084;29;20039;-61
2023/05/13 12:25:49;;;;;;;2.55;1.33;;;21.90;85.40;;;;;;4967467;28;20035;-61
2023/05/13 12:28:25;;;;;;;2.08;1.08;;;22.80;80.00;;;;;;4939935;28;20462;-61
2023/05/13 12:30:58;;;;;;;1.65;0.90;;;23.10;78.20;;;;;;4970433;28;20074;-62
2023/05/13 12:33:29;;;;;;;3.03;1.50;;;23.60;79.10;;;;;;4957290;28;20039;-61
2023/05/13 12:36:30;;;;;;;1.20;1.05;;;22.90;76.10;;;;;;4964975;28;20031;-60
2023/05/13 12:38:57;;;;;;;;;;;21.50;80.50;;;;;;4957016;28;20069;-59
2023/05/13 12:41:24;;;;;;;5.60;1.08;;;21.10;83.00;;;;;;4985994;28;19913;-60
2023/05/13 12:44:07;;;;;;;1.23;0.95;;;21.40;86.50;;;;;;4956664;28;20026;-61
2023/05/13 12:46:33;;;;;;;1.95;1.08;;;21.40;84.80;;;;;;4970769;28;20035;-60
2023/05/13 12:49:02;;;;;;;3.38;1.45;;;21.50;83.80;;;;;;4957404;28;20668;-61
2023/05/13 12:51:29;;;;;;;7.05;1.08;;;21.60;83.80;;;;;;4964657;28;20046;-59
2023/05/13 12:53:56;;;;;;;1.83;1.08;;;21.10;85.70;;;;;;4956295;28;20137;-60